Time;durP1;ratioP1;P1;durP2;ratioP2;P2;SDS_P1;SDS_P2;PMS_P1;PMS_P2;Temp;Humidity;BMP_temperature;BMP_pressure;BME280_temperature;BME280_humidity;BME280_pressure;Samples;Min_cycle;Max_cycle;Signal;HPM_P1;HPM_P2
2022/05/19 04:33:14;;;;;;;;;14.75;13.75;;;;;24.55;58.45;101079.69;5099493;27;46448;-60
2022/05/19 04:35:39;;;;;;;;;16.00;14.00;;;;;24.62;58.37;101089.91;5101437;27;45461;-60
2022/05/19 04:38:13;;;;;;;;;12.75;12.25;;;;;24.62;58.16;101097.25;5101514;27;45386;-60
2022/05/19 04:40:42;;;;;;;;;13.50;13.50;;;;;24.61;58.42;101092.78;5101493;27;45264;-60
2022/05/19 04:43:08;;;;;;;;;12.75;11.75;;;;;24.65;58.24;101091.47;5100996;27;45228;-60
2022/05/19 04:45:34;;;;;;;;;12.25;12.00;;;;;24.68;58.23;101094.75;5101373;27;45388;-61
2022/05/19 04:48:00;;;;;;;;;13.75;12.50;;;;;24.62;58.51;101086.28;5101222;27;45403;-60
2022/05/19 04:50:26;;;;;;;;;12.75;11.25;;;;;24.69;58.15;101110.19;5101131;27;45367;-60
2022/05/19 04:52:52;;;;;;;;;16.50;15.00;;;;;24.60;58.31;101107.50;5101089;27;45368;-60
2022/05/19 04:55:17;;;;;;;;;15.25;15.25;;;;;24.55;58.47;101145.50;5082710;27;45362;-59
2022/05/19 04:57:44;;;;;;;;;13.00;12.00;;;;;24.40;58.97;101135.03;5099901;27;45491;-60
2022/05/19 05:00:12;;;;;;;;;11.50;10.75;;;;;24.37;58.82;101149.03;5100922;27;45341;-60
2022/05/19 05:02:38;;;;;;;;;15.50;12.75;;;;;24.38;59.58;101153.50;5100206;27;45346;-59
2022/05/19 05:05:05;;;;;;;;;15.25;14.25;;;;;24.38;59.10;101158.09;5099386;27;45353;-59
2022/05/19 05:07:30;;;;;;;;;12.00;12.00;;;;;24.37;59.41;101143.53;5100899;27;45285;-60
2022/05/19 05:09:55;;;;;;;;;15.50;12.75;;;;;24.40;59.02;101161.56;5101011;27;45446;-60
2022/05/19 05:12:21;;;;;;;;;18.25;14.75;;;;;24.40;58.84;101167.91;5100833;27;46379;-61
2022/05/19 05:14:47;;;;;;;;;18.25;17.00;;;;;24.26;59.05;101164.75;5099957;27;45404;-60
2022/05/19 05:17:12;;;;;;;;;12.50;12.50;;;;;24.33;59.22;101198.81;5100710;27;45405;-59
2022/05/19 05:19:38;;;;;;;;;10.50;10.00;;;;;24.27;59.44;101210.34;5100883;27;45401;-60
2022/05/19 05:22:03;;;;;;;;;11.50;9.75;;;;;24.32;58.88;101211.66;5079980;27;46483;-60
2022/05/19 05:24:29;;;;;;;;;11.50;11.50;;;;;24.19;59.31;101191.00;5100988;27;45356;-60
2022/05/19 05:26:55;;;;;;;;;11.25;11.25;;;;;24.09;59.00;101188.28;5100470;27;45338;-59
2022/05/19 05:29:20;;;;;;;;;13.00;13.00;;;;;24.08;59.26;101206.59;5100376;27;45516;-60
2022/05/19 05:31:46;;;;;;;;;10.75;10.75;;;;;24.04;59.23;101194.19;5100224;27;46474;-58
2022/05/19 05:34:13;;;;;;;;;13.25;12.00;;;;;24.06;59.23;101185.84;5099822;27;45261;-60
2022/05/19 05:36:39;;;;;;;;;17.00;15.50;;;;;24.08;59.26;101192.88;5100342;27;45383;-59
2022/05/19 05:39:05;;;;;;;;;12.50;12.50;;;;;24.09;59.48;101189.13;5100343;27;45277;-61
2022/05/19 05:41:30;;;;;;;;;14.75;14.00;;;;;24.13;58.63;101198.81;5100051;27;45229;-60
2022/05/19 05:43:56;;;;;;;;;13.75;12.50;;;;;24.13;59.47;101201.53;5100469;27;45401;-60
2022/05/19 05:46:21;;;;;;;;;11.75;11.75;;;;;24.16;58.96;101194.06;5100440;27;45223;-59
2022/05/19 05:48:48;;;;;;;;;14.00;13.50;;;;;24.21;59.11;101203.59;5099924;27;45544;-61
2022/05/19 05:51:16;;;;;;;;;12.50;12.50;;;;;24.22;59.27;101193.50;5100136;27;46242;-60
2022/05/19 05:53:42;;;;;;;;;14.50;11.75;;;;;24.25;58.47;101199.53;5100381;27;45361;-59
2022/05/19 05:56:10;;;;;;;;;11.50;11.00;;;;;24.25;58.59;101185.81;5099900;27;45343;-60
2022/05/19 05:58:36;;;;;;;;;12.50;12.50;;;;;24.22;58.86;101191.63;5099846;27;45581;-59
2022/05/19 06:01:06;;;;;;;;;16.50;13.75;;;;;24.31;58.80;101188.00;5099995;27;45968;-60
2022/05/19 06:03:32;;;;;;;;;12.00;10.00;;;;;24.31;58.80;101188.00;5100321;27;45504;-61
2022/05/19 06:05:58;;;;;;;;;12.00;11.00;;;;;24.34;58.35;101190.41;5099991;27;45259;-59
2022/05/19 06:08:23;;;;;;;;;12.75;12.75;;;;;24.27;58.87;101177.44;5072067;27;45321;-60
2022/05/19 06:10:48;;;;;;;;;15.75;11.50;;;;;24.30;58.72;101185.38;5076114;28;45358;-61
2022/05/19 06:13:15;;;;;;;;;13.75;13.75;;;;;24.19;58.55;101185.50;5079282;28;45335;-59
2022/05/19 06:15:41;;;;;;;;;11.00;11.00;;;;;24.20;59.54;101190.00;5083114;27;45332;-61
2022/05/19 06:18:06;;;;;;;;;13.25;12.00;;;;;24.21;59.14;101195.38;5099255;27;45293;-60
2022/05/19 06:20:32;;;;;;;;;16.75;15.00;;;;;24.22;58.95;101196.22;5099059;27;45413;-60
2022/05/19 06:22:58;;;;;;;;;13.00;10.25;;;;;24.19;59.11;101199.22;5099836;27;45377;-59
2022/05/19 06:25:25;;;;;;;;;14.75;12.75;;;;;24.27;59.16;101200.25;5099676;27;45344;-60
2022/05/19 06:27:51;;;;;;;;;12.75;12.75;;;;;24.24;59.18;101197.81;5099302;27;45311;-60
2022/05/19 06:30:18;;;;;;;;;13.50;13.50;;;;;24.23;59.48;101196.09;5099492;27;46114;-61
2022/05/19 06:32:44;;;;;;;;;10.00;10.00;;;;;24.30;59.40;101186.25;5099405;27;45497;-59
2022/05/19 06:35:12;;;;;;;;;15.75;13.25;;;;;24.38;59.06;101191.84;5098564;27;45336;-60
2022/05/19 06:37:37;;;;;;;;;16.50;14.75;;;;;24.47;58.84;101196.44;5083546;27;45590;-60
2022/05/19 06:40:04;;;;;;;;;15.75;15.00;;;;;24.36;58.80;101179.31;5065235;27;46432;-60
2022/05/19 06:42:29;;;;;;;;;16.50;14.75;;;;;24.42;58.58;101185.03;5094545;27;45332;-59
2022/05/19 06:44:56;;;;;;;;;16.00;14.25;;;;;24.38;58.71;101180.91;5095568;27;45316;-61
2022/05/19 06:47:22;;;;;;;;;13.25;12.00;;;;;24.47;58.36;101199.19;5096167;27;45415;-60
2022/05/19 06:49:51;;;;;;;;;13.75;11.50;;;;;24.50;58.56;101204.34;5095665;27;45267;-60
2022/05/19 06:52:21;;;;;;;;;12.00;12.00;;;;;24.49;58.55;101199.91;5096982;27;45368;-60
2022/05/19 06:54:49;;;;;;;;;17.25;14.00;;;;;24.48;58.32;101192.69;5078440;28;45341;-59
2022/05/19 06:57:16;;;;;;;;;13.50;13.25;;;;;24.60;58.50;101203.47;5078330;28;45359;-59
2022/05/19 06:59:42;;;;;;;;;12.75;12.75;;;;;24.62;58.54;101206.91;5077963;28;46233;-59
2022/05/19 07:02:09;;;;;;;;;15.75;14.25;;;;;24.65;58.33;101207.50;5078370;28;45398;-60
2022/05/19 07:04:36;;;;;;;;;16.50;16.50;;;;;24.61;58.35;101213.41;5097430;27;45335;-60
2022/05/19 07:07:04;;;;;;;;;13.50;12.50;;;;;24.58;58.73;101211.88;5092838;27;45547;-61
2022/05/19 07:09:30;;;;;;;;;13.75;13.75;;;;;24.54;58.82;101212.28;5082255;27;45662;-60
2022/05/19 07:11:55;;;;;;;;;13.25;12.75;;;;;24.61;58.35;101214.28;5098630;27;45334;-60
2022/05/19 07:14:21;;;;;;;;;11.50;11.50;;;;;24.58;58.41;101217.34;5084499;27;45494;-60
2022/05/19 07:16:48;;;;;;;;;19.25;17.50;;;;;24.59;58.36;101218.19;5078318;27;46202;-59
2022/05/19 07:21:59;;;;;;;;;13.00;13.00;;;;;24.58;58.65;101217.34;5081858;28;45369;-59
2022/05/19 07:24:24;;;;;;;;;17.25;14.50;;;;;24.58;58.78;101209.13;5081876;28;45570;-60
2022/05/19 07:26:55;;;;;;;;;16.25;15.75;;;;;24.59;58.56;101204.47;5081682;28;45526;-60
2022/05/19 07:29:21;;;;;;;;;15.00;15.00;;;;;24.55;58.46;101198.44;5081471;28;46458;-59
2022/05/19 07:31:47;;;;;;;;;12.50;12.50;;;;;24.66;58.26;101219.34;5089086;27;45375;-59
2022/05/19 07:34:15;;;;;;;;;15.25;14.25;;;;;24.68;58.72;101217.28;5102184;27;45493;-59
2022/05/19 07:36:41;;;;;;;;;7.75;7.75;;;;;24.74;58.45;101242.25;5101608;27;45376;-60
2022/05/19 07:39:07;;;;;;;;;16.00;15.50;;;;;24.73;58.47;101236.91;5102118;27;45614;-61
2022/05/19 07:41:33;;;;;;;;;19.00;17.00;;;;;24.61;58.65;101227.13;5101621;27;45273;-60
2022/05/19 07:43:59;;;;;;;;;14.75;14.75;;;;;24.57;59.34;101221.09;5101866;27;45454;-59
2022/05/19 07:46:26;;;;;;;;;16.25;16.25;;;;;24.63;58.60;101222.38;5102119;27;45329;-60
2022/05/19 07:48:55;;;;;;;;;15.00;15.00;;;;;24.69;58.57;101225.38;5101991;27;45343;-60
2022/05/19 07:51:25;;;;;;;;;17.50;15.50;;;;;24.79;58.72;101239.03;5100868;27;45426;-59
2022/05/19 07:53:52;;;;;;;;;18.00;15.75;;;;;24.78;58.72;101237.31;5102035;27;45273;-60
2022/05/19 07:56:18;;;;;;;;;17.50;16.75;;;;;24.77;58.79;101235.59;5101685;27;45305;-60
2022/05/19 07:58:46;;;;;;;;;18.00;18.00;;;;;24.84;58.63;101239.44;5101677;27;46274;-60
2022/05/19 08:01:12;;;;;;;;;19.00;17.25;;;;;24.97;58.64;101252.88;5101575;27;45383;-60
2022/05/19 08:03:37;;;;;;;;;20.75;16.25;;;;;25.01;58.09;101248.81;5101415;27;45359;-61
2022/05/19 08:06:04;;;;;;;;;13.50;13.50;;;;;25.09;58.02;101260.78;5101669;27;45704;-60
2022/05/19 08:08:29;;;;;;;;;18.00;14.25;;;;;25.13;57.93;101240.22;5101660;27;47389;-60
2022/05/19 08:10:57;;;;;;;;;14.75;14.75;;;;;25.16;57.76;101256.41;5101440;27;45339;-59
2022/05/19 08:16:06;;;;;;;;;12.00;12.00;;;;;25.20;58.27;101282.50;5101302;27;45446;-60
2022/05/19 08:18:33;;;;;;;;;16.00;15.50;;;;;25.20;58.36;101298.97;5101521;27;45423;-61
2022/05/19 08:21:00;;;;;;;;;15.75;13.75;;;;;25.21;58.06;101300.69;5101634;27;45516;-61
2022/05/19 08:23:34;;;;;;;;;21.00;18.50;;;;;25.19;58.07;101299.13;5101290;27;45346;-61
2022/05/19 08:26:00;;;;;;;;;12.50;12.50;;;;;25.15;58.28;101300.44;5101289;27;45560;-60
2022/05/19 08:28:29;;;;;;;;;17.25;17.25;;;;;25.23;58.44;101306.03;5101071;27;46061;-61
2022/05/19 08:31:00;;;;;;;;;15.50;15.50;;;;;25.24;57.86;101322.38;5100925;27;45274;-61
2022/05/19 08:33:26;;;;;;;;;13.25;13.25;;;;;25.14;57.93;101339.88;5101352;27;45410;-60
2022/05/19 08:35:53;;;;;;;;;15.75;14.75;;;;;24.97;58.86;101335.16;5101092;27;45383;-61
2022/05/19 08:38:20;;;;;;;;;12.25;11.50;;;;;24.86;58.96;101341.66;5101191;27;45473;-62
2022/05/19 08:41:02;;;;;;;;;15.75;13.00;;;;;24.87;58.65;101351.63;5082653;27;45295;-60
2022/05/19 08:44:05;;;;;;;;;14.00;12.00;;;;;24.76;58.75;101355.38;5100524;27;45317;-61
2022/05/19 08:46:33;;;;;;;;;17.25;14.75;;;;;24.75;58.31;101358.31;5069203;27;45439;-59
2022/05/19 08:49:08;;;;;;;;;10.00;10.00;;;;;24.81;57.77;101377.75;5101003;27;46228;-59
2022/05/19 08:51:42;;;;;;;;;12.25;12.25;;;;;24.75;56.44;101375.59;5100680;27;45354;-60
2022/05/19 08:54:09;;;;;;;;;10.25;10.25;;;;;24.68;55.86;101390.03;5101125;27;45259;-59
2022/05/19 08:56:39;;;;;;;;;12.25;10.00;;;;;24.58;55.99;101357.16;5100467;27;45458;-62
2022/05/19 08:59:23;;;;;;;;;6.00;5.75;;;;;24.63;56.19;101373.16;5100540;27;45367;-60
2022/05/19 09:01:56;;;;;;;;;5.00;5.00;;;;;24.54;55.89;101369.41;5100761;27;45389;-60
2022/05/19 09:04:32;;;;;;;;;8.75;8.75;;;;;24.54;56.17;101383.13;5100656;27;45285;-60
2022/05/19 09:10:40;;;;;;;;;11.25;9.25;;;;;24.54;55.36;101385.88;5090664;27;45389;-59
2022/05/19 09:13:25;;;;;;;;;8.00;8.00;;;;;24.70;55.44;101399.00;5100350;27;45291;-59
2022/05/19 09:15:52;;;;;;;;;7.75;7.75;;;;;24.66;54.80;101409.41;5100303;27;45508;-60
2022/05/19 09:18:20;;;;;;;;;6.75;6.75;;;;;24.78;54.63;101421.94;5099409;27;45418;-60
2022/05/19 09:20:54;;;;;;;;;8.00;8.00;;;;;24.85;54.03;101417.59;5100433;27;46131;-61
2022/05/19 09:23:21;;;;;;;;;10.25;8.25;;;;;24.83;53.41;101421.50;5100316;27;45356;-60
2022/05/19 09:25:54;;;;;;;;;9.25;9.25;;;;;24.78;52.96;101423.81;5100110;27;45312;-58
2022/05/19 09:28:20;;;;;;;;;5.50;5.00;;;;;24.77;53.07;101428.41;5100139;27;45505;-58
2022/05/19 09:30:54;;;;;;;;;7.50;7.25;;;;;24.74;52.20;101417.75;5100232;27;45311;-61
2022/05/19 09:33:30;;;;;;;;;8.50;8.50;;;;;24.88;52.63;101442.00;5100314;27;45539;-60
2022/05/19 09:35:58;;;;;;;;;9.00;9.00;;;;;24.95;51.19;101449.66;5100308;27;45689;-60
2022/05/19 09:38:34;;;;;;;;;14.75;12.50;;;;;25.03;50.60;101467.13;5098308;27;45575;-60
2022/05/19 09:41:27;;;;;;;;;14.00;13.25;;;;;24.83;50.45;101463.53;5100061;27;46522;-60
2022/05/19 09:43:55;;;;;;;;;15.25;15.25;;;;;24.76;50.77;101458.72;5099447;27;45359;-61
2022/05/19 09:46:21;;;;;;;;;13.75;13.75;;;;;24.70;50.57;101476.63;5099756;27;45335;-60
2022/05/19 09:49:00;;;;;;;;;14.75;14.75;;;;;24.42;50.82;101481.06;5100008;27;45378;-60
2022/05/19 09:51:31;;;;;;;;;16.50;16.50;;;;;24.58;50.58;101505.22;5099888;27;46306;-59
2022/05/19 09:53:59;;;;;;;;;13.00;13.00;;;;;24.72;50.33;101502.06;5099924;27;45312;-61
2022/05/19 09:56:35;;;;;;;;;14.00;13.75;;;;;24.73;49.88;101512.00;5099327;27;45512;-60
2022/05/19 09:59:38;;;;;;;;;13.50;13.00;;;;;24.55;49.93;101512.84;5099616;27;45398;-60
2022/05/19 10:02:23;;;;;;;;;10.00;9.00;;;;;24.64;50.15;101512.00;5094296;27;45418;-59
2022/05/19 10:04:51;;;;;;;;;11.00;8.50;;;;;24.70;49.81;101503.19;5081792;27;45497;-59
2022/05/19 10:07:23;;;;;;;;;10.50;8.25;;;;;24.80;49.43;101485.75;5099697;27;45405;-60
2022/05/19 10:09:49;;;;;;;;;9.75;9.75;;;;;24.93;49.21;101484.59;5077284;28;45519;-60
2022/05/19 10:12:24;;;;;;;;;8.25;7.75;;;;;24.83;49.32;101479.09;5094669;27;45547;-60
2022/05/19 10:15:01;;;;;;;;;10.75;6.50;;;;;24.84;48.84;101497.28;5099298;27;45429;-60
2022/05/19 10:17:41;;;;;;;;;7.50;7.25;;;;;24.92;47.94;101519.41;5099753;27;45332;-60
2022/05/19 10:20:22;;;;;;;;;6.00;6.00;;;;;24.95;47.67;101529.22;5099748;27;45300;-61
2022/05/19 10:23:09;;;;;;;;;4.00;4.00;;;;;24.94;47.58;101528.34;5099578;27;46368;-58
2022/05/19 10:25:42;;;;;;;;;3.00;3.00;;;;;25.03;47.71;101532.97;5099192;27;45485;-60
2022/05/19 10:31:54;;;;;;;;;4.00;3.00;;;;;25.26;45.41;101517.94;5099030;27;45742;-61
2022/05/19 10:34:35;;;;;;;;;3.00;3.00;;;;;25.39;45.26;101514.03;5099522;27;46256;-59
2022/05/19 10:37:25;;;;;;;;;2.00;2.00;;;;;25.57;44.63;101501.25;5098745;27;45426;-61
2022/05/19 10:40:06;;;;;;;;;5.00;2.00;;;;;25.82;45.47;101519.00;5098155;27;45331;-60
2022/05/19 10:42:53;;;;;;;;;1.00;1.00;;;;;26.02;43.77;101512.41;5099072;27;45503;-59
2022/05/19 10:45:26;;;;;;;;;1.75;1.75;;;;;26.20;42.68;101509.72;5098912;27;45376;-60
2022/05/19 10:48:22;;;;;;;;;4.75;2.00;;;;;26.37;43.08;101514.41;5098965;27;45330;-60
2022/05/19 10:50:59;;;;;;;;;2.00;1.50;;;;;26.55;42.24;101526.31;5099061;27;45312;-60
2022/05/19 10:53:36;;;;;;;;;2.00;2.00;;;;;26.42;41.59;101517.56;5098819;27;45351;-60
2022/05/19 10:56:29;;;;;;;;;1.75;1.75;;;;;26.44;41.95;101526.53;5097555;27;45203;-59
2022/05/19 10:59:24;;;;;;;;;2.00;2.00;;;;;26.53;42.02;101520.13;5099027;27;45384;-60
2022/05/19 11:02:23;;;;;;;;;2.00;1.00;;;;;26.61;41.79;101514.72;5055236;27;45390;-60
2022/05/19 11:05:06;;;;;;;;;4.75;2.25;;;;;26.64;41.63;101516.25;5098932;27;45335;-60
2022/05/19 11:07:35;;;;;;;;;2.00;2.00;;;;;26.69;41.37;101519.44;5098534;27;46507;-59
2022/05/19 11:10:37;;;;;;;;;2.75;1.75;;;;;26.82;41.01;101510.75;5098865;27;45411;-61
2022/05/19 11:13:05;;;;;;;;;4.75;2.25;;;;;26.88;40.27;101513.75;5098764;27;45418;-60
2022/05/19 11:15:42;;;;;;;;;2.50;1.00;;;;;26.97;40.41;101510.09;5098570;27;45322;-60
2022/05/19 11:18:19;;;;;;;;;1.75;1.75;;;;;26.98;39.95;101492.56;5098831;27;47152;-60
2022/05/19 11:20:53;;;;;;;;;1.75;1.75;;;;;27.09;40.14;101510.72;5098796;27;45384;-59
2022/05/19 11:23:28;;;;;;;;;2.00;2.00;;;;;27.12;40.45;101496.66;5097292;27;45338;-59
2022/05/19 11:26:23;;;;;;;;;4.25;1.50;;;;;27.18;40.34;101514.41;5096727;27;45593;-60
2022/05/19 11:29:05;;;;;;;;;1.00;1.00;;;;;27.23;39.57;101507.38;5098123;27;46516;-60
2022/05/19 11:31:33;;;;;;;;;1.00;1.00;;;;;27.31;39.91;101501.94;5098392;27;45424;-60
2022/05/19 11:34:04;;;;;;;;;3.00;2.00;;;;;27.36;39.83;101483.06;5098999;27;45277;-60
2022/05/19 11:36:51;;;;;;;;;3.00;2.00;;;;;27.56;39.99;101488.41;5097819;27;45385;-61
2022/05/19 11:39:23;;;;;;;;;2.00;2.00;;;;;27.45;37.75;101490.38;5098471;27;46402;-60
2022/05/19 11:41:52;;;;;;;;;1.00;1.00;;;;;27.46;39.77;101491.22;5097969;27;45651;-60
2022/05/19 11:44:25;;;;;;;;;1.50;1.50;;;;;27.49;38.81;101511.03;5098546;27;45393;-60
2022/05/19 11:46:58;;;;;;;;;2.75;1.75;;;;;27.57;38.60;101510.25;5098391;27;45362;-60
2022/05/19 11:55:40;;;;;;;;;0.25;0.25;;;;;27.71;38.57;101525.34;5098519;27;45403;-60
2022/05/19 11:58:18;;;;;;;;;0.00;0.00;;;;;27.80;38.70;101535.38;5097893;27;45335;-60
2022/05/19 12:01:07;;;;;;;;;1.50;1.50;;;;;27.82;37.84;101531.41;5097741;27;45628;-60
2022/05/19 12:03:55;;;;;;;;;0.75;0.75;;;;;27.84;38.37;101542.28;5097831;27;45324;-59
2022/05/19 12:06:28;;;;;;;;;1.00;1.00;;;;;27.60;38.35;101545.75;5099195;27;45367;-60
2022/05/19 12:09:16;;;;;;;;;2.75;2.00;;;;;27.68;38.61;101547.69;5101485;27;45390;-61
2022/05/19 12:11:52;;;;;;;;;2.00;2.00;;;;;27.73;38.24;101548.09;5101417;27;46608;-59
2022/05/19 12:14:40;;;;;;;;;3.00;3.00;;;;;27.44;38.49;101510.66;5101331;27;45390;-60
2022/05/19 12:17:06;;;;;;;;;2.75;2.75;;;;;27.68;38.46;101553.22;5096572;27;45264;-60
2022/05/19 12:19:55;;;;;;;;;4.00;3.00;;;;;27.69;39.11;101554.94;5101427;27;45473;-60
2022/05/19 12:22:23;;;;;;;;;1.00;1.00;;;;;27.82;37.65;101552.59;5100441;27;46420;-60
2022/05/19 12:25:16;;;;;;;;;1.00;1.00;;;;;27.75;37.87;101554.28;5101446;27;45370;-59
2022/05/19 12:28:05;;;;;;;;;2.00;2.00;;;;;27.72;38.09;101555.50;5101247;27;45187;-60
2022/05/19 12:33:26;;;;;;;;;3.00;2.00;;;;;27.68;38.90;101562.34;5101228;27;45328;-60
2022/05/19 12:35:59;;;;;;;;;0.75;0.75;;;;;27.64;37.77;101560.09;5101324;27;45375;-61
2022/05/19 12:38:37;;;;;;;;;0.50;0.50;;;;;27.60;37.98;101561.41;5100783;27;45819;-60
2022/05/19 12:41:22;;;;;;;;;1.00;1.00;;;;;27.63;37.89;101558.34;5100908;27;45433;-60
2022/05/19 12:43:48;;;;;;;;;1.00;1.00;;;;;27.66;38.35;101558.00;5099295;27;45375;-61
2022/05/19 12:46:34;;;;;;;;;1.00;1.00;;;;;27.78;38.62;101552.06;5100683;27;45289;-60
2022/05/19 12:49:26;;;;;;;;;0.75;0.75;;;;;27.81;38.62;101542.63;5083098;27;45581;-60
2022/05/19 12:51:55;;;;;;;;;3.00;2.50;;;;;27.97;38.69;101555.63;5087894;27;45372;-61
2022/05/19 12:54:25;;;;;;;;;1.00;1.00;;;;;28.04;38.49;101553.94;5100145;27;45226;-60
2022/05/19 12:56:55;;;;;;;;;1.25;1.25;;;;;28.20;37.56;101548.56;5100279;27;45394;-60
2022/05/19 12:59:34;;;;;;;;;2.00;1.00;;;;;28.38;38.05;101549.31;5100923;27;45278;-60
2022/05/19 13:02:03;;;;;;;;;3.75;2.00;;;;;28.60;37.52;101562.50;5100991;27;45473;-60
2022/05/19 13:04:29;;;;;;;;;2.00;2.00;;;;;28.70;36.95;101567.00;5100558;27;46226;-60
2022/05/19 13:07:41;;;;;;;;;2.00;1.25;;;;;28.80;37.06;101565.88;5100960;27;45447;-60
2022/05/19 13:10:14;;;;;;;;;1.25;1.25;;;;;28.90;36.50;101571.25;5081925;27;45367;-60
2022/05/19 13:12:59;;;;;;;;;1.75;1.75;;;;;28.97;36.38;101555.72;5100335;27;46316;-61
2022/05/19 13:15:28;;;;;;;;;1.00;1.00;;;;;29.06;36.20;101559.34;5100491;27;46038;-59
2022/05/19 13:17:56;;;;;;;;;2.25;2.00;;;;;29.21;36.55;101550.22;5099133;27;45370;-66
2022/05/19 13:20:26;;;;;;;;;1.50;1.50;;;;;29.40;36.87;101546.28;5082172;27;45352;-65
2022/05/19 13:23:02;;;;;;;;;3.00;2.00;;;;;29.72;35.29;101557.28;5100791;27;45439;-65
2022/05/19 13:25:31;;;;;;;;;2.00;2.00;;;;;29.73;35.63;101536.91;5100248;27;46386;-66
2022/05/19 13:30:58;;;;;;;;;2.00;2.00;;;;;29.93;34.82;101562.28;5100641;27;45395;-65
2022/05/19 13:33:37;;;;;;;;;1.75;1.75;;;;;29.69;34.85;101549.34;5100290;27;45452;-65
2022/05/19 13:36:11;;;;;;;;;1.00;1.00;;;;;29.64;35.28;101561.97;5100450;27;46384;-66
2022/05/19 13:38:37;;;;;;;;;0.75;0.25;;;;;29.59;35.23;101551.44;5099956;27;45330;-65
2022/05/19 13:41:05;;;;;;;;;2.75;2.00;;;;;29.72;35.51;101553.66;5100605;27;45303;-64
2022/05/19 13:43:30;;;;;;;;;2.00;2.00;;;;;29.96;35.51;101555.53;5099759;27;45344;-65
2022/05/19 13:46:00;;;;;;;;;1.00;1.00;;;;;30.24;35.38;101553.22;5100484;27;45975;-65
2022/05/19 13:48:31;;;;;;;;;3.00;3.00;;;;;30.48;35.41;101555.88;5099608;27;45224;-65
2022/05/19 13:51:02;;;;;;;;;2.75;2.75;;;;;30.56;34.80;101552.22;5099608;27;45344;-64
2022/05/19 13:53:32;;;;;;;;;6.00;3.00;;;;;30.52;34.22;101551.75;5100141;27;45506;-66
2022/05/19 13:55:59;;;;;;;;;2.00;2.00;;;;;30.37;34.84;101551.59;5099913;27;46405;-66
2022/05/19 13:58:25;;;;;;;;;2.75;2.00;;;;;30.35;34.85;101553.69;5099891;27;45292;-65
2022/05/19 14:00:52;;;;;;;;;0.00;0.00;;;;;30.43;34.67;101561.09;5098150;27;45339;-66
2022/05/19 14:03:18;;;;;;;;;1.25;1.25;;;;;30.31;35.08;101562.50;5096571;27;45319;-64
2022/05/19 14:05:45;;;;;;;;;2.00;2.00;;;;;30.45;34.77;101553.47;5093795;27;46420;-63
2022/05/19 14:08:21;;;;;;;;;3.25;2.00;;;;;30.58;34.78;101555.69;5087261;27;45401;-64
2022/05/19 14:10:54;;;;;;;;;2.25;2.25;;;;;30.79;33.94;101545.69;5096180;27;45344;-64
2022/05/19 14:13:24;;;;;;;;;2.00;2.00;;;;;31.05;33.68;101559.16;5099428;27;45248;-64
2022/05/19 14:16:06;;;;;;;;;3.50;3.50;;;;;31.20;33.66;101545.44;5099365;27;45454;-65
2022/05/19 14:18:53;;;;;;;;;2.75;2.00;;;;;31.18;33.41;101553.06;5099975;27;45456;-64
2022/05/19 14:21:23;;;;;;;;;1.50;1.50;;;;;31.21;33.85;101544.41;5099711;27;45301;-64
2022/05/19 14:24:00;;;;;;;;;3.75;3.00;;;;;31.29;33.52;101549.00;5099461;27;45336;-64
2022/05/19 14:26:28;;;;;;;;;3.00;3.00;;;;;31.14;33.20;101555.34;5099560;27;46707;-65
2022/05/19 14:28:55;;;;;;;;;3.25;2.50;;;;;31.23;33.21;101555.25;5098974;27;45316;-64
2022/05/19 14:31:31;;;;;;;;;2.00;2.00;;;;;31.36;33.24;101553.63;5099446;27;45359;-64
2022/05/19 14:34:28;;;;;;;;;1.00;1.00;;;;;31.61;33.53;101551.47;5098933;27;45337;-63
2022/05/19 14:36:59;;;;;;;;;3.00;2.00;;;;;31.74;33.55;101542.53;5080898;27;46118;-65
2022/05/19 14:43:04;;;;;;;;;2.75;2.50;;;;;31.74;32.83;101542.53;5099143;27;45354;-65
2022/05/19 14:45:30;;;;;;;;;2.25;2.25;;;;;31.48;33.30;101531.84;5099637;27;45365;-66
2022/05/19 14:47:56;;;;;;;;;2.00;2.00;;;;;31.30;33.59;101545.19;5096428;27;46410;-65
2022/05/19 14:50:25;;;;;;;;;2.00;2.00;;;;;31.04;34.35;101532.53;5099610;27;45479;-66
2022/05/19 14:52:55;;;;;;;;;2.50;2.50;;;;;31.11;34.33;101519.72;5099315;27;45299;-64
2022/05/19 14:55:23;;;;;;;;;6.75;2.50;;;;;31.29;33.63;101535.16;5099205;27;45293;-66
2022/05/19 14:57:51;;;;;;;;;2.00;2.00;;;;;31.42;33.71;101529.81;5097758;27;45445;-65
2022/05/19 15:00:21;;;;;;;;;2.00;1.25;;;;;31.67;33.21;101522.16;5099304;27;45530;-65
2022/05/19 15:02:47;;;;;;;;;3.75;3.00;;;;;31.63;33.27;101518.06;5099551;27;45347;-64
2022/05/19 15:05:14;;;;;;;;;3.25;3.00;;;;;31.61;33.58;101522.88;5099153;27;45505;-66
2022/05/19 15:07:48;;;;;;;;;3.25;1.75;;;;;31.65;33.49;101514.03;5098686;27;47252;-66
2022/05/19 15:10:15;;;;;;;;;2.75;2.75;;;;;31.66;33.35;101509.34;5099417;27;45377;-63
2022/05/19 15:12:41;;;;;;;;;4.00;3.00;;;;;31.59;33.45;101518.38;5098248;27;45232;-65
2022/05/19 15:15:08;;;;;;;;;3.00;3.00;;;;;31.56;33.54;101518.75;5098303;27;45237;-66
2022/05/19 15:17:33;;;;;;;;;2.00;2.00;;;;;31.43;33.89;101518.56;5098538;27;46463;-65
2022/05/19 15:19:59;;;;;;;;;2.75;2.00;;;;;31.48;34.40;101512.44;5098560;27;45700;-64
2022/05/19 15:22:26;;;;;;;;;3.75;2.00;;;;;31.54;33.56;101525.56;5098918;27;45433;-65
2022/05/19 15:24:55;;;;;;;;;3.00;3.00;;;;;31.42;33.97;101519.59;5098968;27;45378;-65
2022/05/19 15:27:24;;;;;;;;;2.75;2.75;;;;;31.42;34.77;101527.06;5098301;27;46161;-67
2022/05/19 15:29:50;;;;;;;;;2.25;2.25;;;;;31.50;34.24;101533.38;5098690;27;45334;-66
2022/05/19 15:32:16;;;;;;;;;3.00;3.00;;;;;31.59;33.81;101521.16;5098659;27;45685;-67
2022/05/19 15:34:42;;;;;;;;;2.50;2.50;;;;;31.59;33.54;101525.84;5098348;27;45524;-67
2022/05/19 15:37:07;;;;;;;;;3.25;3.25;;;;;31.67;33.86;101528.56;5098419;27;46258;-65
2022/05/19 15:39:33;;;;;;;;;4.00;3.00;;;;;31.72;33.40;101516.91;5097518;27;45427;-66
2022/05/19 15:41:58;;;;;;;;;4.00;4.00;;;;;31.87;33.13;101517.78;5081638;27;45356;-65
2022/05/19 15:44:24;;;;;;;;;3.00;2.25;;;;;32.02;32.75;101520.56;5102179;27;45505;-65
2022/05/19 15:46:50;;;;;;;;;2.00;2.00;;;;;32.25;33.00;101515.78;5101487;27;45580;-66
2022/05/19 15:49:16;;;;;;;;;1.25;1.25;;;;;32.53;32.32;101524.25;5100751;27;45318;-65
2022/05/19 15:51:42;;;;;;;;;2.75;2.75;;;;;32.86;31.94;101530.22;5102025;27;45323;-67
2022/05/19 15:54:07;;;;;;;;;3.50;3.00;;;;;32.96;31.37;101525.19;5101779;27;45310;-66
2022/05/19 15:56:34;;;;;;;;;2.50;2.00;;;;;32.86;32.00;101525.53;5101781;27;46241;-66
2022/05/19 15:58:59;;;;;;;;;3.00;2.00;;;;;32.81;31.65;101524.41;5101624;27;45570;-65
2022/05/19 16:01:25;;;;;;;;;1.75;1.00;;;;;32.69;32.16;101524.91;5101763;27;45738;-65
2022/05/19 16:03:50;;;;;;;;;3.00;3.00;;;;;32.72;31.65;101528.34;5101558;27;45398;-65
2022/05/19 16:06:16;;;;;;;;;4.50;3.00;;;;;32.66;32.10;101529.97;5101460;27;46198;-65
2022/05/19 16:08:42;;;;;;;;;2.00;2.00;;;;;32.70;32.10;101542.44;5084464;27;45663;-65
2022/05/19 16:11:10;;;;;;;;;2.00;2.00;;;;;32.77;31.72;101536.94;5101008;27;45342;-65
2022/05/19 16:13:39;;;;;;;;;4.00;2.00;;;;;32.55;31.76;101528.56;5100316;27;45285;-66
2022/05/19 16:16:04;;;;;;;;;3.00;3.00;;;;;32.27;32.35;101539.50;5101522;27;45413;-65
2022/05/19 16:18:31;;;;;;;;;4.00;2.75;;;;;31.95;33.33;101537.09;5082935;27;45356;-65
2022/05/19 16:20:57;;;;;;;;;3.50;3.25;;;;;31.53;33.51;101540.47;5088386;27;45415;-65
2022/05/19 16:23:26;;;;;;;;;2.50;2.50;;;;;30.89;34.89;101533.50;5083231;27;45506;-66
2022/05/19 16:25:52;;;;;;;;;4.25;3.00;;;;;30.51;35.07;101549.13;5100381;27;45306;-65
2022/05/19 16:28:17;;;;;;;;;2.00;2.00;;;;;30.35;35.80;101544.53;5100908;27;45345;-66
2022/05/19 16:30:43;;;;;;;;;2.25;2.25;;;;;30.43;35.95;101542.59;5096211;27;45647;-65
2022/05/19 16:33:10;;;;;;;;;3.00;3.00;;;;;30.59;35.65;101538.03;5099524;27;46014;-67
2022/05/19 16:35:37;;;;;;;;;4.25;4.25;;;;;30.87;35.45;101530.94;5082257;27;45989;-64
2022/05/19 16:38:05;;;;;;;;;4.00;3.00;;;;;31.07;34.61;101534.97;5101410;27;45382;-64